Skip to main content.
Station Historical Data
 
Daily Summary for December 11, 2019 Units:  Both    English   Metric
« Previous Day
Next Day »
Daily Weekly Monthly Yearly Custom
  Current: High: Low: Average:
Temperature: 20.7 °F /  -6.3 °C 25.5 °F /  -3.6 °C 19.8 °F /  -6.8 °C 23.2 °F /  -4.9 °C
Dew Point: 18.5 °F /  -7.5 °C 20.8 °F /  -6.2 °C 16.2 °F /  -8.8 °C 18.9 °F /  -7.3 °C
Humidity: 91% 91% 73% 83%
Wind Speed: 7.3mph /  11.7km/h 15.5mph /  24.9km/h - 8.3mph /  13.4km/h
Wind Gust: 9.2mph /  14.8km/h 21.9mph /  35.2km/h - -
WindNNE - - WSW
Pressure: 30.4 in /  1029.7 hPa 30.4 in /  1029.7 hPa 30.3 in /  1025.8 hPa -
Precipitation: 0 in /  0.0 mm      
Historical Graphs
 
 
Tabular Data for December 11, 2019
Time Temperature Dew Point Pressure Wind Wind Speed Wind Gust Humidity Rainfall Rate (Hourly) solar Conditions
00:00 23.5 °F /  -4.7 °C 16.2 °F /  -8.8 °C 30.3in /  1027.5hPa SW 14.5mph /  23.3km/h 19.6mph /  31.5km/h 73% 0in /  0.0mm 0.00 W/m2 OVC
00:05 23.4 °F /  -4.8 °C 16.3 °F /  -8.7 °C 30.3in /  1027.5hPa SW 12.6mph /  20.3km/h 15mph /  24.1km/h 74% 0in /  0.0mm 0.00 W/m2 OVC
00:10 23.4 °F /  -4.8 °C 16.3 °F /  -8.7 °C 30.3in /  1027.5hPa SSW 10.6mph /  17.1km/h 18.4mph /  29.6km/h 74% 0in /  0.0mm 0.00 W/m2 OVC
00:15 23.4 °F /  -4.8 °C 16.2 °F /  -8.8 °C 30.3in /  1027.5hPa SW 10mph /  16.1km/h 11.5mph /  18.5km/h 74% 0in /  0.0mm 0.00 W/m2 OVC
00:20 23.2 °F /  -4.9 °C 16.3 °F /  -8.7 °C 30.3in /  1027.4hPa SW 9.8mph /  15.8km/h 14mph /  22.5km/h 75% 0in /  0.0mm 0.00 W/m2 OVC
00:25 22.8 °F /  -5.1 °C 16.2 °F /  -8.8 °C 30.3in /  1027.4hPa SW 9.2mph /  14.8km/h 11.5mph /  18.5km/h 75% 0in /  0.0mm 0.00 W/m2 OVC
00:30 22.8 °F /  -5.1 °C 16.3 °F /  -8.7 °C 30.3in /  1027.3hPa SSW 9.9mph /  15.9km/h 13.8mph /  22.2km/h 76% 0in /  0.0mm 0.00 W/m2 OVC
00:35 22.6 °F /  -5.2 °C 16.5 °F /  -8.6 °C 30.3in /  1027.4hPa SW 8.5mph /  13.7km/h 12.7mph /  20.4km/h 77% 0in /  0.0mm 0.00 W/m2 OVC
00:40 22.8 °F /  -5.1 °C 17.2 °F /  -8.2 °C 30.3in /  1027.5hPa SSW 10.1mph /  16.3km/h 13.8mph /  22.2km/h 79% 0in /  0.0mm 0.00 W/m2 OVC
00:45 22.8 °F /  -5.1 °C 17.2 °F /  -8.2 °C 30.3in /  1027.5hPa SW 11.9mph /  19.1km/h 15mph /  24.1km/h 79% 0in /  0.0mm 0.00 W/m2 OVC
00:50 22.8 °F /  -5.1 °C 17.2 °F /  -8.2 °C 30.3in /  1027.3hPa SSW 10.3mph /  16.6km/h 19.6mph /  31.5km/h 79% 0in /  0.0mm 0.00 W/m2 OVC
00:55 22.6 °F /  -5.2 °C 17.4 °F /  -8.1 °C 30.3in /  1027.3hPa SW 12.1mph /  19.5km/h 15mph /  24.1km/h 80% 0in /  0.0mm 0.00 W/m2 OVC
01:00 22.6 °F /  -5.2 °C 17.4 °F /  -8.1 °C 30.3in /  1027.3hPa SW 10.3mph /  16.6km/h 13.8mph /  22.2km/h 80% 0in /  0.0mm 0.00 W/m2 OVC
01:05 22.5 °F /  -5.3 °C 17.4 °F /  -8.1 °C 30.3in /  1027.3hPa SW 9.2mph /  14.8km/h 12.7mph /  20.4km/h 81% 0in /  0.0mm 0.00 W/m2 OVC
01:10 22.5 °F /  -5.3 °C 17.4 °F /  -8.1 °C 30.3in /  1027.2hPa SW 7.9mph /  12.7km/h 11.5mph /  18.5km/h 81% 0in /  0.0mm 0.00 W/m2 OVC
01:15 22.5 °F /  -5.3 °C 17.4 °F /  -8.1 °C 30.3in /  1027.1hPa SSW 9.8mph /  15.8km/h 12.7mph /  20.4km/h 81% 0in /  0.0mm 0.00 W/m2 OVC
01:20 22.5 °F /  -5.3 °C 17.8 °F /  -7.9 °C 30.3in /  1027.1hPa SW 8.6mph /  13.8km/h 11.5mph /  18.5km/h 82% 0in /  0.0mm 0.00 W/m2 OVC
01:25 22.5 °F /  -5.3 °C 17.8 °F /  -7.9 °C 30.3in /  1027.1hPa SW 9.8mph /  15.8km/h 13.8mph /  22.2km/h 82% 0in /  0.0mm 0.00 W/m2 OVC
01:30 22.6 °F /  -5.2 °C 18 °F /  -7.8 °C 30.3in /  1027.0hPa SSW 12mph /  19.3km/h 12mph /  19.3km/h 82% 0in /  0.0mm 0.00 W/m2 OVC
01:35 22.6 °F /  -5.2 °C 18.1 °F /  -7.7 °C 30.3in /  1027.0hPa SSW 9.1mph /  14.6km/h 12.7mph /  20.4km/h 83% 0in /  0.0mm 0.00 W/m2 OVC
01:40 22.6 °F /  -5.2 °C 18.3 °F /  -7.6 °C 30.3in /  1027.0hPa SSW 10.5mph /  16.9km/h 12.7mph /  20.4km/h 83% 0in /  0.0mm 0.00 W/m2 OVC
01:45 22.8 °F /  -5.1 °C 18.3 °F /  -7.6 °C 30.3in /  1027.0hPa SW 10.6mph /  17.1km/h 16.1mph /  25.9km/h 83% 0in /  0.0mm 0.00 W/m2 OVC
01:50 23.2 °F /  -4.9 °C 18.7 °F /  -7.4 °C 30.3in /  1027.1hPa SW 11.9mph /  19.1km/h 15mph /  24.1km/h 83% 0in /  0.0mm 0.00 W/m2 OVC
01:55 23.4 °F /  -4.8 °C 18.9 °F /  -7.3 °C 30.3in /  1027.0hPa WSW 11mph /  17.7km/h 15mph /  24.1km/h 83% 0in /  0.0mm 0.00 W/m2 OVC
02:00 23.5 °F /  -4.7 °C 19.2 °F /  -7.1 °C 30.3in /  1027.0hPa SW 11.5mph /  18.5km/h 14mph /  22.5km/h 83% 0in /  0.0mm 0.00 W/m2 OVC
02:05 23.7 °F /  -4.6 °C 19.2 °F /  -7.1 °C 30.3in /  1026.7hPa SW 12mph /  19.3km/h 17.3mph /  27.8km/h 83% 0in /  0.0mm 0.00 W/m2 OVC
02:10 23.7 °F /  -4.6 °C 19.4 °F /  -7.0 °C 30.3in /  1026.4hPa SW 12.4mph /  20.0km/h 16.1mph /  25.9km/h 83% 0in /  0.0mm 0.00 W/m2 OVC
02:15 24.1 °F /  -4.4 °C 19.6 °F /  -6.9 °C 30.3in /  1026.1hPa SW 11.7mph /  18.8km/h 18.4mph /  29.6km/h 83% 0in /  0.0mm 0.00 W/m2 OVC
02:20 24.1 °F /  -4.4 °C 19.4 °F /  -7.0 °C 30.3in /  1026.1hPa SSW 12mph /  19.3km/h 16.1mph /  25.9km/h 82% 0in /  0.0mm 0.00 W/m2 OVC
02:25 24.3 °F /  -4.3 °C 19.8 °F /  -6.8 °C 30.3in /  1026.1hPa SW 11.4mph /  18.3km/h 16.1mph /  25.9km/h 83% 0in /  0.0mm 0.00 W/m2 OVC
02:30 24.4 °F /  -4.2 °C 19.8 °F /  -6.8 °C 30.3in /  1026.1hPa SW 12.9mph /  20.8km/h 16.1mph /  25.9km/h 82% 0in /  0.0mm 0.00 W/m2 OVC
02:35 24.6 °F /  -4.1 °C 19.9 °F /  -6.7 °C 30.3in /  1026.2hPa SW 13.7mph /  22.0km/h 18.4mph /  29.6km/h 82% 0in /  0.0mm 0.00 W/m2 OVC
02:40 24.8 °F /  -4.0 °C 20.1 °F /  -6.6 °C 30.3in /  1026.3hPa SW 12.9mph /  20.8km/h 17.3mph /  27.8km/h 82% 0in /  0.0mm 0.00 W/m2 OVC
02:45 25.2 °F /  -3.8 °C 20.5 °F /  -6.4 °C 30.3in /  1026.2hPa SW 13.2mph /  21.2km/h 17.3mph /  27.8km/h 82% 0in /  0.0mm 0.00 W/m2 OVC
02:50 25.2 °F /  -3.8 °C 20.1 °F /  -6.6 °C 30.3in /  1026.2hPa WSW 12.2mph /  19.6km/h 17.3mph /  27.8km/h 81% 0in /  0.0mm 0.00 W/m2 OVC
02:55 25.3 °F /  -3.7 °C 20.5 °F /  -6.4 °C 30.3in /  1026.1hPa SW 12.2mph /  19.6km/h 18.4mph /  29.6km/h 81% 0in /  0.0mm 0.00 W/m2 OVC
03:00 25.5 °F /  -3.6 °C 20.7 °F /  -6.3 °C 30.3in /  1026.2hPa SW 13.9mph /  22.4km/h 18.4mph /  29.6km/h 81% 0in /  0.0mm 0.00 W/m2 OVC
03:05 25.5 °F /  -3.6 °C 20.7 °F /  -6.3 °C 30.3in /  1026.2hPa SW 13.2mph /  21.2km/h 19.6mph /  31.5km/h 81% 0in /  0.0mm 0.00 W/m2 OVC
03:10 25.5 °F /  -3.6 °C 20.7 °F /  -6.3 °C 30.3in /  1026.1hPa SW 13.9mph /  22.4km/h 19.6mph /  31.5km/h 81% 0in /  0.0mm 0.00 W/m2 OVC
03:15 25.5 °F /  -3.6 °C 20.7 °F /  -6.3 °C 30.3in /  1026.2hPa SW 15.5mph /  24.9km/h 19.6mph /  31.5km/h 81% 0in /  0.0mm 0.00 W/m2 OVC
03:20 25.5 °F /  -3.6 °C 20.7 °F /  -6.3 °C 30.3in /  1026.2hPa WSW 14.3mph /  23.0km/h 18.4mph /  29.6km/h 81% 0in /  0.0mm 0.00 W/m2 OVC
03:25 25.5 °F /  -3.6 °C 20.7 °F /  -6.3 °C 30.3in /  1026.3hPa SW 14.3mph /  23.0km/h 18.4mph /  29.6km/h 81% 0in /  0.0mm 0.00 W/m2 OVC
03:30 25.5 °F /  -3.6 °C 20.7 °F /  -6.3 °C 30.3in /  1026.2hPa SW 13.9mph /  22.4km/h 17.3mph /  27.8km/h 81% 0in /  0.0mm 0.00 W/m2 OVC
03:35 25.3 °F /  -3.7 °C 20.5 °F /  -6.4 °C 30.3in /  1026.2hPa SW 15mph /  24.1km/h 19.6mph /  31.5km/h 81% 0in /  0.0mm 0.00 W/m2 OVC
03:40 25.3 °F /  -3.7 °C 20.5 °F /  -6.4 °C 30.3in /  1026.2hPa SW 13.1mph /  21.1km/h 18.4mph /  29.6km/h 81% 0in /  0.0mm 0.00 W/m2 OVC
03:45 25.3 °F /  -3.7 °C 20.7 °F /  -6.3 °C 30.3in /  1026.1hPa SW 13.9mph /  22.4km/h 21.9mph /  35.2km/h 82% 0in /  0.0mm 0.00 W/m2 OVC
03:50 25.2 °F /  -3.8 °C 20.5 °F /  -6.4 °C 30.3in /  1025.9hPa WSW 13.5mph /  21.7km/h 17.3mph /  27.8km/h 82% 0in /  0.0mm 0.00 W/m2 OVC
03:55 25.2 °F /  -3.8 °C 20.5 °F /  -6.4 °C 30.3in /  1025.9hPa SW 13.1mph /  21.1km/h 18mph /  29.0km/h 82% 0in /  0.0mm 0.00 W/m2 OVC
04:00 25.2 °F /  -3.8 °C 20.5 °F /  -6.4 °C 30.3in /  1025.9hPa SW 14.4mph /  23.2km/h 17.3mph /  27.8km/h 82% 0in /  0.0mm 0.00 W/m2 OVC
04:05 25.2 °F /  -3.8 °C 20.5 °F /  -6.4 °C 30.3in /  1025.9hPa SW 13.8mph /  22.2km/h 17.3mph /  27.8km/h 82% 0in /  0.0mm 0.00 W/m2 OVC
04:10 25.2 °F /  -3.8 °C 20.5 °F /  -6.4 °C 30.3in /  1025.8hPa SW 12.1mph /  19.5km/h 17.3mph /  27.8km/h 82% 0in /  0.0mm 0.00 W/m2 OVC
04:15 25.2 °F /  -3.8 °C 20.8 °F /  -6.2 °C 30.3in /  1025.8hPa WSW 12.7mph /  20.4km/h 18.4mph /  29.6km/h 83% 0in /  0.0mm 0.00 W/m2 OVC
04:20 25.2 °F /  -3.8 °C 20.5 °F /  -6.4 °C 30.3in /  1025.8hPa SW 12.3mph /  19.8km/h 16.1mph /  25.9km/h 82% 0in /  0.0mm 0.00 W/m2 OVC
04:25 25.2 °F /  -3.8 °C 20.5 °F /  -6.4 °C 30.3in /  1025.9hPa WSW 11.7mph /  18.8km/h 15mph /  24.1km/h 82% 0in /  0.0mm 0.00 W/m2 OVC
04:30 25.2 °F /  -3.8 °C 20.7 °F /  -6.3 °C 30.3in /  1026.0hPa WSW 11mph /  17.7km/h 16.1mph /  25.9km/h 83% 0in /  0.0mm 0.00 W/m2 OVC
04:35 25.2 °F /  -3.8 °C 20.7 °F /  -6.3 °C 30.3in /  1026.0hPa WSW 11.2mph /  18.0km/h 15mph /  24.1km/h 83% 0in /  0.0mm 0.00 W/m2 OVC
04:40 25.2 °F /  -3.8 °C 20.7 °F /  -6.3 °C 30.3in /  1026.1hPa WSW 9.9mph /  15.9km/h 12mph /  19.3km/h 83% 0in /  0.0mm 0.00 W/m2 OVC
04:45 25.2 °F /  -3.8 °C 20.7 °F /  -6.3 °C 30.3in /  1026.1hPa WSW 10.2mph /  16.4km/h 12.7mph /  20.4km/h 83% 0in /  0.0mm 0.00 W/m2 OVC
04:50 25 °F /  -3.9 °C 20.7 °F /  -6.3 °C 30.3in /  1026.1hPa WSW 9.4mph /  15.1km/h 11.5mph /  18.5km/h 83% 0in /  0.0mm 0.00 W/m2 OVC
04:55 25 °F /  -3.9 °C 20.5 °F /  -6.4 °C 30.3in /  1026.3hPa WSW 9.1mph /  14.6km/h 11.5mph /  18.5km/h 83% 0in /  0.0mm 0.00 W/m2 OVC
05:00 24.8 °F /  -4.0 °C 20.5 °F /  -6.4 °C 30.3in /  1026.3hPa WSW 8.5mph /  13.7km/h 11mph /  17.7km/h 83% 0in /  0.0mm 0.00 W/m2 OVC
05:05 24.6 °F /  -4.1 °C 20.1 °F /  -6.6 °C 30.3in /  1026.4hPa West 6.5mph /  10.5km/h 8.1mph /  13.0km/h 83% 0in /  0.0mm 0.00 W/m2 OVC
05:10 24.1 °F /  -4.4 °C 19.8 °F /  -6.8 °C 30.3in /  1026.4hPa West 6mph /  9.7km/h 8.1mph /  13.0km/h 83% 0in /  0.0mm 0.00 W/m2 OVC
05:15 23.7 °F /  -4.6 °C 19.8 °F /  -6.8 °C 30.3in /  1026.5hPa WSW 5.3mph /  8.5km/h 8.1mph /  13.0km/h 84% 0in /  0.0mm 0.00 W/m2 OVC
05:20 23.5 °F /  -4.7 °C 19.8 °F /  -6.8 °C 30.3in /  1026.6hPa West 5.4mph /  8.7km/h 7mph /  11.3km/h 85% 0in /  0.0mm 0.00 W/m2 OVC
05:25 23.5 °F /  -4.7 °C 19.8 °F /  -6.8 °C 30.3in /  1026.6hPa West 4.7mph /  7.6km/h 5.8mph /  9.3km/h 85% 0in /  0.0mm 0.00 W/m2 OVC
05:30 23.5 °F /  -4.7 °C 19.8 °F /  -6.8 °C 30.3in /  1026.8hPa West 4.6mph /  7.4km/h 6mph /  9.7km/h 85% 0in /  0.0mm 0.00 W/m2 OVC
05:35 23.5 °F /  -4.7 °C 19.8 °F /  -6.8 °C 30.3in /  1026.9hPa West 2.1mph /  3.4km/h 3.5mph /  5.6km/h 85% 0in /  0.0mm 0.00 W/m2 OVC
05:40 23.5 °F /  -4.7 °C 19.8 °F /  -6.8 °C 30.3in /  1027.2hPa NNW 3.8mph /  6.1km/h 4mph /  6.4km/h 85% 0in /  0.0mm 0.00 W/m2 OVC
05:45 23.5 °F /  -4.7 °C 19.8 °F /  -6.8 °C 30.3in /  1027.4hPa NW 4.8mph /  7.7km/h 5mph /  8.0km/h 85% 0in /  0.0mm 0.00 W/m2 OVC
05:50 23.5 °F /  -4.7 °C 19.8 °F /  -6.8 °C 30.3in /  1027.4hPa WNW 3.1mph /  5.0km/h 4mph /  6.4km/h 85% 0in /  0.0mm 0.00 W/m2 OVC
05:55 22.6 °F /  -5.2 °C 19 °F /  -7.2 °C 30.3in /  1027.5hPa NW 3.5mph /  5.6km/h 4mph /  6.4km/h 86% 0in /  0.0mm 0.00 W/m2 OVC
06:00 22.6 °F /  -5.2 °C 19 °F /  -7.2 °C 30.4in /  1027.7hPa NNW 4.4mph /  7.1km/h 5.8mph /  9.3km/h 86% 0in /  0.0mm 0.00 W/m2 OVC
06:05 22.3 °F /  -5.4 °C 18.7 °F /  -7.4 °C 30.3in /  1027.6hPa NW 3.2mph /  5.1km/h 4.6mph /  7.4km/h 86% 0in /  0.0mm 0.00 W/m2 OVC
06:10 22.3 °F /  -5.4 °C 19 °F /  -7.2 °C 30.4in /  1027.7hPa NW 3.2mph /  5.1km/h 4mph /  6.4km/h 87% 0in /  0.0mm 0.00 W/m2 OVC
06:15 22.5 °F /  -5.3 °C 19 °F /  -7.2 °C 30.4in /  1027.7hPa NW 3.1mph /  5.0km/h 3.5mph /  5.6km/h 87% 0in /  0.0mm 0.00 W/m2 OVC
06:20 22.3 °F /  -5.4 °C 18.9 °F /  -7.3 °C 30.4in /  1027.8hPa North 2.6mph /  4.2km/h 3.5mph /  5.6km/h 87% 0in /  0.0mm 0.00 W/m2 OVC
06:25 21.9 °F /  -5.6 °C 18.5 °F /  -7.5 °C 30.4in /  1027.9hPa North 2mph /  3.2km/h 3.5mph /  5.6km/h 86% 0in /  0.0mm 0.00 W/m2 OVC
06:30 21.7 °F /  -5.7 °C 18.5 °F /  -7.5 °C 30.4in /  1027.9hPa NNW 2.6mph /  4.2km/h 3.5mph /  5.6km/h 87% 0in /  0.0mm 0.00 W/m2 OVC
06:35 21.6 °F /  -5.8 °C 18.1 °F /  -7.7 °C 30.4in /  1027.9hPa NNW 2.2mph /  3.5km/h 3.5mph /  5.6km/h 86% 0in /  0.0mm 0.00 W/m2 OVC
06:40 21.6 °F /  -5.8 °C 18.1 °F /  -7.7 °C 30.4in /  1028.0hPa NNW 3mph /  4.8km/h 4mph /  6.4km/h 87% 0in /  0.0mm 0.00 W/m2 OVC
06:45 21.4 °F /  -5.9 °C 18.1 °F /  -7.7 °C 30.4in /  1028.1hPa NNW 4mph /  6.4km/h 4mph /  6.4km/h 87% 0in /  0.0mm 0.00 W/m2 OVC
06:50 21.4 °F /  -5.9 °C 18 °F /  -7.8 °C 30.4in /  1028.2hPa NW 3mph /  4.8km/h 3.5mph /  5.6km/h 87% 0in /  0.0mm 0.00 W/m2 OVC
06:55 21.2 °F /  -6.0 °C 18.1 °F /  -7.7 °C 30.4in /  1028.5hPa WNW 1.2mph /  1.9km/h 3.5mph /  5.6km/h 88% 0in /  0.0mm 0.00 W/m2 OVC
07:01 20.8 °F /  -6.2 °C 17.4 °F /  -8.1 °C 30.4in /  1028.6hPa NW 2.4mph /  3.9km/h 3.5mph /  5.6km/h 87% 0in /  0.0mm 0.00 W/m2 OVC
07:05 20.7 °F /  -6.3 °C 17.2 °F /  -8.2 °C 30.4in /  1028.6hPa WNW 1mph /  1.6km/h 1.1mph /  1.8km/h 87% 0in /  0.0mm 0.00 W/m2 OVC
07:10 20.5 °F /  -6.4 °C 17.4 °F /  -8.1 °C 30.4in /  1028.6hPa NNW 1mph /  1.6km/h 1.2mph /  1.9km/h 88% 0in /  0.0mm 0.00 W/m2 CLR
07:15 20.5 °F /  -6.4 °C 17.4 °F /  -8.1 °C 30.4in /  1028.6hPa NNW 1mph /  1.6km/h 1.1mph /  1.8km/h 88% 0in /  0.0mm 0.00 W/m2 OVC
07:20 20.7 °F /  -6.3 °C 18 °F /  -7.8 °C 30.4in /  1028.7hPa North 1mph /  1.6km/h 2.3mph /  3.7km/h 89% 0in /  0.0mm 0.00 W/m2 OVC
07:25 20.7 °F /  -6.3 °C 18 °F /  -7.8 °C 30.4in /  1028.7hPa North 2mph /  3.2km/h 2.3mph /  3.7km/h 89% 0in /  0.0mm 0.00 W/m2 OVC
07:30 20.5 °F /  -6.4 °C 17.4 °F /  -8.1 °C 30.4in /  1028.8hPa NNE 2.1mph /  3.4km/h 3.5mph /  5.6km/h 88% 0in /  0.0mm 0.00 W/m2 OVC
07:35 20.1 °F /  -6.6 °C 17.2 °F /  -8.2 °C 30.4in /  1029.0hPa NNW 1.9mph /  3.1km/h 3.5mph /  5.6km/h 88% 0in /  0.0mm 0.00 W/m2 OVC
07:40 19.8 °F /  -6.8 °C 16.9 °F /  -8.4 °C 30.4in /  1029.1hPa North 1.1mph /  1.8km/h 2.3mph /  3.7km/h 88% 0in /  0.0mm 5.00 W/m2 OVC
07:45 19.8 °F /  -6.8 °C 17.1 °F /  -8.3 °C 30.4in /  1029.1hPa NNW 1.6mph /  2.6km/h 3.5mph /  5.6km/h 89% 0in /  0.0mm 7.00 W/m2 OVC
07:50 19.9 °F /  -6.7 °C 17.2 °F /  -8.2 °C 30.4in /  1029.3hPa NNW 1.7mph /  2.7km/h 2.3mph /  3.7km/h 89% 0in /  0.0mm 11.00 W/m2 CLR
07:55 19.9 °F /  -6.7 °C 17.4 °F /  -8.1 °C 30.4in /  1029.4hPa North 2.6mph /  4.2km/h 3.5mph /  5.6km/h 90% 0in /  0.0mm 12.00 W/m2 CLR
08:00 20.1 °F /  -6.6 °C 17.4 °F /  -8.1 °C 30.4in /  1029.6hPa North 3.1mph /  5.0km/h 4mph /  6.4km/h 89% 0in /  0.0mm 14.00 W/m2 SCT
08:05 19.9 °F /  -6.7 °C 17.2 °F /  -8.2 °C 30.4in /  1029.6hPa North 2.9mph /  4.7km/h 3.5mph /  5.6km/h 89% 0in /  0.0mm 18.00 W/m2 SCT
08:10 20.1 °F /  -6.6 °C 17.4 °F /  -8.1 °C 30.4in /  1029.6hPa North 3mph /  4.8km/h 3.5mph /  5.6km/h 89% 0in /  0.0mm 25.00 W/m2 SCT
08:15 20.7 °F /  -6.3 °C 18.5 °F /  -7.5 °C 30.4in /  1029.7hPa NNE 7.3mph /  11.7km/h 9.2mph /  14.8km/h 91% 0in /  0.0mm 37.00 W/m2 FEW
Friend Weather